createdAt,value
2018-05-08T00:02:27.681Z,97522.03
2018-05-08T00:04:56.670Z,97519.78
2018-05-08T00:07:24.931Z,97516.05
2018-05-08T00:09:53.159Z,97512.43
2018-05-08T00:12:22.263Z,97512.31
2018-05-08T00:14:51.267Z,97508.70
2018-05-08T00:17:20.284Z,97518.67
2018-05-08T00:19:49.284Z,97514.23
2018-05-08T00:22:18.294Z,97518.50
2018-05-08T00:24:47.295Z,97512.89
2018-05-08T00:27:16.404Z,97510.73
2018-05-08T00:29:45.412Z,97499.23
2018-05-08T00:32:14.434Z,97504.42
2018-05-08T00:34:42.671Z,97508.27
2018-05-08T00:37:10.995Z,97503.77
2018-05-08T00:39:39.995Z,97498.69
2018-05-08T00:42:08.287Z,97501.87
2018-05-08T00:44:37.404Z,97502.45
2018-05-08T00:47:06.407Z,97506.69
2018-05-08T00:49:35.477Z,97497.98
2018-05-08T00:52:03.707Z,97496.77
2018-05-08T00:54:50.447Z,97493.17
2018-05-08T00:57:18.742Z,97496.09
2018-05-08T00:59:46.989Z,97489.15
2018-05-08T01:02:15.226Z,97497.40
2018-05-08T01:04:43.479Z,97498.83
2018-05-08T01:07:12.483Z,97497.55
2018-05-08T01:09:41.522Z,97501.55
2018-05-08T01:12:09.762Z,97499.63
2018-05-08T01:14:38.011Z,97493.98
2018-05-08T01:17:06.291Z,97493.74
2018-05-08T01:19:34.514Z,97495.33
2018-05-08T01:22:02.742Z,97493.41
2018-05-08T01:24:31.002Z,97493.65
2018-05-08T01:26:59.243Z,97496.81
2018-05-08T01:29:27.502Z,97492.69
2018-05-08T01:31:56.608Z,97494.83
2018-05-08T01:34:25.727Z,97495.50
2018-05-08T01:36:54.734Z,97489.30
2018-05-08T01:39:24.493Z,97485.37
2018-05-08T01:41:52.723Z,97485.45
2018-05-08T01:44:21.743Z,97482.91
2018-05-08T01:46:50.756Z,97488.61
2018-05-08T01:49:19.783Z,97479.66
2018-05-08T01:51:48.047Z,97481.34
2018-05-08T01:54:17.062Z,97485.87
2018-05-08T01:56:45.297Z,97484.05
2018-05-08T01:59:13.557Z,97478.16
2018-05-08T02:01:41.821Z,97474.44
2018-05-08T02:04:10.839Z,97477.34
2018-05-08T02:06:39.083Z,97472.02
2018-05-08T02:09:07.410Z,97465.64
2018-05-08T02:11:36.549Z,97466.77
2018-05-08T02:14:04.800Z,97472.34
2018-05-08T02:16:33.913Z,97473.62
2018-05-08T02:19:03.023Z,97466.80
2018-05-08T02:21:32.131Z,97470.06
2018-05-08T02:24:01.147Z,97466.38
2018-05-08T02:26:30.144Z,97472.44
2018-05-08T02:28:59.970Z,97466.36
2018-05-08T02:31:28.991Z,97466.98
2018-05-08T02:33:58.007Z,97466.02
2018-05-08T02:36:26.243Z,97464.45
2018-05-08T02:38:54.518Z,97465.95
2018-05-08T02:41:22.853Z,97468.45
2018-05-08T02:43:51.213Z,97466.47
2018-05-08T02:46:19.453Z,97459.02
2018-05-08T02:48:47.827Z,97464.17
2018-05-08T02:51:16.939Z,97461.36
2018-05-08T02:53:45.955Z,97465.09
2018-05-08T02:56:14.191Z,97455.09
2018-05-08T02:58:42.623Z,97460.13
2018-05-08T03:01:11.721Z,97450.25
2018-05-08T03:03:40.741Z,97456.37
2018-05-08T03:06:09.834Z,97458.62
2018-05-08T03:08:38.831Z,97450.94
2018-05-08T03:11:08.588Z,97449.38
2018-05-08T03:13:36.851Z,97452.09
2018-05-08T03:16:05.967Z,97440.02
2018-05-08T03:18:34.980Z,97446.08
2018-05-08T03:21:04.080Z,97450.67
2018-05-08T03:23:33.088Z,97450.02
2018-05-08T03:26:02.115Z,97455.63
2018-05-08T03:28:30.356Z,97453.88
2018-05-08T03:30:58.621Z,97449.47
2018-05-08T03:33:26.854Z,97451.38
2018-05-08T03:35:55.098Z,97449.70
2018-05-08T03:38:23.326Z,97451.23
2018-05-08T03:40:51.586Z,97453.00
2018-05-08T03:43:19.811Z,97456.71
2018-05-08T03:45:49.202Z,97457.04
2018-05-08T03:48:18.819Z,97459.76
2018-05-08T03:50:47.151Z,97454.16
2018-05-08T03:53:16.247Z,97451.50
2018-05-08T03:55:45.276Z,97459.95
2018-05-08T03:58:13.535Z,97455.33
2018-05-08T04:01:00.343Z,97459.20
2018-05-08T04:03:46.450Z,97447.05
2018-05-08T04:09:35.920Z,97450.91
2018-05-08T04:12:04.193Z,97451.66
2018-05-08T04:14:32.475Z,97446.74
2018-05-08T04:17:01.491Z,97447.63
2018-05-08T04:19:30.495Z,97454.39
2018-05-08T04:21:59.492Z,97446.92
2018-05-08T04:24:29.246Z,97446.41
2018-05-08T04:26:57.475Z,97446.97
2018-05-08T04:29:25.716Z,97443.24
2018-05-08T04:31:54.726Z,97446.90
2018-05-08T04:34:22.954Z,97437.76
2018-05-08T04:36:51.190Z,97437.82
2018-05-08T04:39:20.202Z,97442.04
2018-05-08T04:41:49.236Z,97437.58
2018-05-08T04:44:17.485Z,97439.87
2018-05-08T04:46:47.115Z,97433.70
2018-05-08T04:49:16.131Z,97436.17
2018-05-08T04:51:44.377Z,97435.17
2018-05-08T04:54:12.624Z,97441.03
2018-05-08T04:56:40.883Z,97442.93
2018-05-08T04:59:09.232Z,97437.05
2018-05-08T05:01:37.467Z,97443.16
2018-05-08T05:04:06.462Z,97444.25
2018-05-08T05:06:35.494Z,97450.77
2018-05-08T05:09:04.067Z,97450.88
2018-05-08T05:11:33.695Z,97451.23
2018-05-08T05:14:02.687Z,97452.87
2018-05-08T05:16:31.704Z,97446.80
2018-05-08T05:19:00.694Z,97449.42
2018-05-08T05:21:29.713Z,97450.02
2018-05-08T05:23:58.709Z,97436.97
2018-05-08T05:26:27.736Z,97441.38
2018-05-08T05:28:55.970Z,97431.89
2018-05-08T05:31:24.227Z,97429.29
2018-05-08T05:33:52.475Z,97431.44
2018-05-08T05:36:21.363Z,97433.55
2018-05-08T05:38:49.615Z,97423.63
2018-05-08T05:41:17.900Z,97426.91
2018-05-08T05:43:46.151Z,97416.30
2018-05-08T05:46:14.395Z,97420.59
2018-05-08T05:48:42.639Z,97413.87
2018-05-08T05:51:12.023Z,97405.69
2018-05-08T05:53:40.259Z,97405.30
2018-05-08T05:56:08.507Z,97405.09
2018-05-08T05:58:36.747Z,97410.64
2018-05-08T06:01:05.011Z,97397.95
2018-05-08T06:03:34.023Z,97387.77
2018-05-08T06:06:03.035Z,97390.41
2018-05-08T06:08:31.279Z,97393.86
2018-05-08T06:11:00.294Z,97388.19
2018-05-08T06:13:28.558Z,97396.44
2018-05-08T06:15:56.812Z,97386.87
2018-05-08T06:18:25.056Z,97396.62
2018-05-08T06:20:54.081Z,97378.95
2018-05-08T06:23:23.075Z,97383.84
2018-05-08T06:25:51.318Z,97385.00
2018-05-08T06:28:19.554Z,97380.45
2018-05-08T06:30:47.826Z,97375.54
2018-05-08T06:33:16.066Z,97377.13
2018-05-08T06:35:44.304Z,97381.02
2018-05-08T06:38:12.587Z,97380.33
2018-05-08T06:40:40.818Z,97382.55
2018-05-08T06:43:09.839Z,97380.64
2018-05-08T06:45:38.083Z,97381.16
2018-05-08T06:48:06.345Z,97381.08
2018-05-08T06:50:34.591Z,97377.91
2018-05-08T06:53:04.182Z,97382.47
2018-05-08T06:55:32.428Z,97378.01
2018-05-08T06:58:00.696Z,97374.50
2018-05-08T07:00:28.932Z,97385.09
2018-05-08T07:02:57.187Z,97386.30
2018-05-08T07:05:25.419Z,97374.44
2018-05-08T07:07:53.679Z,97377.77
2018-05-08T07:10:21.919Z,97376.59
2018-05-08T07:12:50.933Z,97375.73
2018-05-08T07:15:19.989Z,97379.59
2018-05-08T07:17:48.247Z,97373.31
2018-05-08T07:20:16.486Z,97380.95
2018-05-08T07:22:44.742Z,97368.56
2018-05-08T07:25:12.975Z,97370.64
2018-05-08T07:27:41.227Z,97367.68
2018-05-08T07:30:09.496Z,97368.86
2018-05-08T07:32:37.751Z,97373.64
2018-05-08T07:35:06.759Z,97370.45
2018-05-08T07:37:36.162Z,97370.92
2018-05-08T07:40:04.411Z,97369.08
2018-05-08T07:42:32.667Z,97371.47
2018-05-08T07:45:02.246Z,97361.11
2018-05-08T07:47:30.506Z,97363.44
2018-05-08T07:49:58.749Z,97363.23
2018-05-08T07:52:26.990Z,97365.64
2018-05-08T07:54:55.219Z,97365.54
2018-05-08T07:57:23.485Z,97360.80
2018-05-08T07:59:51.746Z,97370.63
2018-05-08T08:02:20.017Z,97365.24
2018-05-08T08:04:48.262Z,97368.66
2018-05-08T08:07:16.574Z,97375.59
2018-05-08T08:09:45.652Z,97360.30
2018-05-08T08:12:13.968Z,97361.94
2018-05-08T08:14:42.145Z,97355.11
2018-05-08T08:17:10.423Z,97351.22
2018-05-08T08:19:38.671Z,97359.67
2018-05-08T08:22:06.947Z,97356.79
2018-05-08T08:24:35.209Z,97358.53
2018-05-08T08:27:04.274Z,97357.13
2018-05-08T08:29:32.615Z,97357.56
2018-05-08T08:32:01.663Z,97348.70
2018-05-08T08:34:29.911Z,97346.11
2018-05-08T08:36:58.947Z,97344.68
2018-05-08T08:39:27.198Z,97338.59
2018-05-08T08:41:55.429Z,97340.88
2018-05-08T08:44:23.699Z,97347.74
2018-05-08T08:46:51.946Z,97339.46
2018-05-08T08:49:20.209Z,97339.59
2018-05-08T08:51:48.459Z,97334.24
2018-05-08T08:54:16.727Z,97337.23
2018-05-08T08:56:45.739Z,97338.59
2018-05-08T08:59:14.754Z,97335.58
2018-05-08T09:01:43.792Z,97333.09
2018-05-08T09:04:12.056Z,97333.17
2018-05-08T09:06:40.305Z,97338.53
2018-05-08T09:09:08.559Z,97335.05
2018-05-08T09:11:36.816Z,97330.88
2018-05-08T09:14:05.870Z,97325.98
2018-05-08T09:16:34.109Z,97322.84
2018-05-08T09:19:03.218Z,97335.30
2018-05-08T09:21:32.227Z,97320.95
2018-05-08T09:24:01.251Z,97324.70
2018-05-08T09:26:29.506Z,97318.37
2018-05-08T09:28:58.640Z,97313.58
2018-05-08T09:31:27.659Z,97317.04
2018-05-08T09:33:56.047Z,97310.42
2018-05-08T09:36:24.294Z,97306.47
2018-05-08T09:38:52.571Z,97306.88
2018-05-08T09:41:20.900Z,97305.78
2018-05-08T09:43:50.017Z,97303.55
2018-05-08T09:46:18.376Z,97296.73
2018-05-08T09:48:46.966Z,97293.70
2018-05-08T09:51:15.182Z,97290.06
2018-05-08T09:53:44.295Z,97279.74
2018-05-08T09:56:12.586Z,97285.02
2018-05-08T09:58:40.850Z,97277.37
2018-05-08T10:01:09.119Z,97281.70
2018-05-08T10:03:37.374Z,97274.22
2018-05-08T10:06:05.623Z,97270.17
2018-05-08T10:08:33.891Z,97266.72
2018-05-08T10:11:02.139Z,97261.87
2018-05-08T10:13:30.408Z,97263.78
2018-05-08T10:15:59.405Z,97256.08
2018-05-08T10:18:28.425Z,97256.80
2018-05-08T10:20:56.658Z,97257.94
2018-05-08T10:23:24.918Z,97257.93
2018-05-08T10:25:53.163Z,97247.22
2018-05-08T10:28:22.302Z,97246.50
2018-05-08T10:30:50.555Z,97243.08
2018-05-08T10:33:19.594Z,97243.16
2018-05-08T10:35:48.586Z,97241.77
2018-05-08T10:38:17.633Z,97235.73
2018-05-08T10:40:45.919Z,97222.86
2018-05-08T10:43:14.184Z,97224.11
2018-05-08T10:45:42.461Z,97223.59
2018-05-08T10:48:11.507Z,97218.28
2018-05-08T10:50:39.755Z,97223.16
2018-05-08T10:53:08.771Z,97204.09
2018-05-08T10:55:37.042Z,97211.27
2018-05-08T10:58:05.307Z,97206.96
2018-05-08T11:00:33.610Z,97208.97
2018-05-08T11:03:01.846Z,97195.55
2018-05-08T11:05:30.111Z,97188.38
2018-05-08T11:07:59.139Z,97194.95
2018-05-08T11:10:27.404Z,97184.47
2018-05-08T11:12:56.444Z,97186.20
2018-05-08T11:15:24.752Z,97181.48
2018-05-08T11:17:52.996Z,97185.41
2018-05-08T11:20:22.116Z,97172.12
2018-05-08T11:22:50.371Z,97177.59
2018-05-08T11:25:18.691Z,97171.92
2018-05-08T11:27:46.962Z,97175.33
2018-05-08T11:30:15.301Z,97174.23
2018-05-08T11:32:43.566Z,97156.02
2018-05-08T11:35:11.862Z,97153.72
2018-05-08T11:37:40.895Z,97149.18
2018-05-08T11:40:09.167Z,97147.34
2018-05-08T11:42:37.520Z,97153.12
2018-05-08T11:45:06.546Z,97146.00
2018-05-08T11:47:34.808Z,97140.19
2018-05-08T11:50:03.932Z,97140.88
2018-05-08T11:52:32.093Z,97138.51
2018-05-08T11:55:00.443Z,97134.70
2018-05-08T11:57:28.699Z,97135.25
2018-05-08T11:59:57.745Z,97137.06
2018-05-08T12:02:25.980Z,97135.42
2018-05-08T12:04:55.028Z,97127.45
2018-05-08T12:07:23.905Z,97122.41
2018-05-08T12:09:52.971Z,97119.22
2018-05-08T12:12:21.259Z,97125.31
2018-05-08T12:14:49.505Z,97120.67
2018-05-08T12:17:17.788Z,97112.43
2018-05-08T12:19:46.097Z,97111.33
2018-05-08T12:22:14.346Z,97110.06
2018-05-08T12:24:43.759Z,97107.30
2018-05-08T12:27:12.779Z,97106.05
2018-05-08T12:29:41.801Z,97103.28
2018-05-08T12:32:10.059Z,97105.69
2018-05-08T12:34:39.079Z,97097.67
2018-05-08T12:37:08.083Z,97100.14
2018-05-08T12:39:37.091Z,97099.23
2018-05-08T12:42:06.104Z,97104.75
2018-05-08T12:44:35.106Z,97106.14
2018-05-08T12:47:04.121Z,97110.41
2018-05-08T12:49:32.542Z,97099.63
2018-05-08T12:52:00.815Z,97090.12
2018-05-08T12:54:29.111Z,97096.58
2018-05-08T12:56:58.103Z,97087.94
2018-05-08T12:59:26.353Z,97081.15
2018-05-08T13:01:56.185Z,97073.96
2018-05-08T13:04:25.201Z,97073.23
2018-05-08T13:06:53.480Z,97068.27
2018-05-08T13:09:21.756Z,97079.88
2018-05-08T13:11:50.789Z,97083.92
2018-05-08T13:14:19.896Z,97072.55
2018-05-08T13:16:49.008Z,97076.37
2018-05-08T13:19:18.072Z,97066.33
2018-05-08T13:21:46.404Z,97060.31
2018-05-08T13:24:15.444Z,97064.42
2018-05-08T13:26:44.433Z,97057.25
2018-05-08T13:29:12.671Z,97054.29
2018-05-08T13:31:40.943Z,97058.09
2018-05-08T13:34:09.180Z,97059.89
2018-05-08T13:36:38.956Z,97049.94
2018-05-08T13:39:07.335Z,97047.40
2018-05-08T13:41:35.578Z,97049.88
2018-05-08T13:44:04.714Z,97045.05
2018-05-08T13:46:32.971Z,97045.53
2018-05-08T13:49:01.198Z,97039.56
2018-05-08T13:51:30.272Z,97034.14
2018-05-08T13:53:58.503Z,97039.93
2018-05-08T13:56:26.763Z,97028.34
2018-05-08T13:58:55.777Z,97035.39
2018-05-08T14:01:24.027Z,97025.35
2018-05-08T14:03:52.267Z,97025.16
2018-05-08T14:06:20.528Z,97027.31
2018-05-08T14:08:49.532Z,97029.83
2018-05-08T14:11:18.580Z,97016.23
2018-05-08T14:13:46.931Z,97017.78
2018-05-08T14:16:15.939Z,97015.63
2018-05-08T14:18:44.359Z,97016.34
2018-05-08T14:21:12.624Z,97011.58
2018-05-08T14:23:41.633Z,97001.50
2018-05-08T14:26:10.673Z,97005.87
2018-05-08T14:28:39.140Z,97004.84
2018-05-08T14:31:07.409Z,96998.86
2018-05-08T14:33:36.423Z,97000.13
2018-05-08T14:36:05.447Z,96995.74
2018-05-08T14:38:33.727Z,96996.12
2018-05-08T14:41:01.973Z,96991.45
2018-05-08T14:43:30.243Z,96982.02
2018-05-08T14:45:58.471Z,96988.27
2018-05-08T14:48:26.726Z,96981.27
2018-05-08T14:50:55.064Z,96991.97
2018-05-08T14:53:24.221Z,96989.77
2018-05-08T14:55:52.498Z,96987.09
2018-05-08T14:58:20.752Z,96981.01
2018-05-08T15:00:49.787Z,96977.30
2018-05-08T15:03:18.035Z,96976.94
2018-05-08T15:05:47.847Z,96975.64
2018-05-08T15:08:17.526Z,96971.08
2018-05-08T15:10:45.755Z,96969.62
2018-05-08T15:13:15.515Z,96963.64
2018-05-08T15:15:44.603Z,96968.29
2018-05-08T15:18:13.939Z,96966.37
2018-05-08T15:20:42.723Z,96962.39
2018-05-08T15:23:11.746Z,96965.83
2018-05-08T15:25:41.482Z,96965.55
2018-05-08T15:28:09.737Z,96962.03
2018-05-08T15:30:37.978Z,96962.48
2018-05-08T15:33:06.250Z,96957.48
2018-05-08T15:35:34.507Z,96963.29
2018-05-08T15:38:03.645Z,96961.41
2018-05-08T15:40:31.937Z,96958.90
2018-05-08T15:43:00.931Z,96957.38
2018-05-08T15:45:29.168Z,96961.95
2018-05-08T15:47:57.429Z,96949.80
2018-05-08T15:50:25.679Z,96961.70
2018-05-08T15:52:54.698Z,96948.78
2018-05-08T15:55:24.462Z,96951.48
2018-05-08T15:57:52.714Z,96944.56
2018-05-08T16:00:21.710Z,96946.43
2018-05-08T16:02:50.842Z,96936.23
2018-05-08T16:05:19.103Z,96941.98
2018-05-08T16:07:48.120Z,96929.06
2018-05-08T16:10:17.219Z,96932.10
2018-05-08T16:12:46.326Z,96932.34
2018-05-08T16:15:16.147Z,96930.14
2018-05-08T16:17:45.546Z,96929.25
2018-05-08T16:20:13.778Z,96927.36
2018-05-08T16:22:42.047Z,96925.34
2018-05-08T16:25:11.878Z,96928.64
2018-05-08T16:27:40.882Z,96929.34
2018-05-08T16:30:09.948Z,96926.25
2018-05-08T16:32:38.922Z,96928.87
2018-05-08T16:35:07.154Z,96932.81
2018-05-08T16:37:35.409Z,96930.26
2018-05-08T16:40:03.647Z,96937.73
2018-05-08T16:42:31.877Z,96927.27
2018-05-08T16:45:00.118Z,96933.47
2018-05-08T16:47:29.136Z,96933.78
2018-05-08T16:49:58.147Z,96921.83
2018-05-08T16:52:27.168Z,96921.89
2018-05-08T16:54:55.403Z,96918.08
2018-05-08T16:57:24.431Z,96915.03
2018-05-08T16:59:53.459Z,96909.78
2018-05-08T17:02:22.483Z,96913.60
2018-05-08T17:04:52.168Z,96916.38
2018-05-08T17:07:21.119Z,96904.70
2018-05-08T17:09:49.392Z,96906.96
2018-05-08T17:12:17.840Z,96911.53
2018-05-08T17:14:46.936Z,96907.66
2018-05-08T17:17:15.183Z,96915.63
2018-05-08T17:19:43.421Z,96910.91
2018-05-08T17:22:11.693Z,96920.66
2018-05-08T17:24:39.931Z,96919.71
2018-05-08T17:27:08.938Z,96917.95
2018-05-08T17:29:37.227Z,96914.45
2018-05-08T17:32:06.227Z,96915.08
2018-05-08T17:34:35.265Z,96926.19
2018-05-08T17:37:04.260Z,96920.98
2018-05-08T17:39:33.277Z,96925.17
2018-05-08T17:42:01.547Z,96918.94
2018-05-08T17:44:31.177Z,96913.94
2018-05-08T17:46:59.414Z,96905.80
2018-05-08T17:49:27.675Z,96912.11
2018-05-08T17:51:55.909Z,96913.56
2018-05-08T17:54:24.242Z,96919.92
2018-05-08T17:56:53.238Z,96922.48
2018-05-08T17:59:21.514Z,96929.05
2018-05-08T18:01:49.772Z,96919.78
2018-05-08T18:04:18.229Z,96924.66
2018-05-08T18:06:46.402Z,96919.57
2018-05-08T18:09:14.799Z,96926.98
2018-05-08T18:11:43.019Z,96926.44
2018-05-08T18:14:11.271Z,96923.02
2018-05-08T18:16:39.531Z,96922.54
2018-05-08T18:19:07.779Z,96927.52
2018-05-08T18:21:36.027Z,96920.95
2018-05-08T18:24:04.314Z,96925.94
2018-05-08T18:26:33.334Z,96926.81
2018-05-08T18:29:01.600Z,96935.47
2018-05-08T18:31:30.614Z,96927.43
2018-05-08T18:34:00.250Z,96930.35
2018-05-08T18:36:29.246Z,96927.39
2018-05-08T18:38:58.631Z,96931.62
2018-05-08T18:41:28.396Z,96932.00
2018-05-08T18:43:56.746Z,96935.16
2018-05-08T18:46:25.731Z,96939.50
2018-05-08T18:48:54.075Z,96931.93
2018-05-08T18:51:25.859Z,96938.56
2018-05-08T18:53:54.284Z,96934.11
2018-05-08T18:56:22.626Z,96930.95
2018-05-08T18:58:51.736Z,96933.89
2018-05-08T19:01:20.782Z,96922.67
2018-05-08T19:03:49.133Z,96935.16
2018-05-08T19:06:17.277Z,96930.13
2018-05-08T19:08:45.539Z,96938.66
2018-05-08T19:11:19.243Z,96939.19
2018-05-08T19:13:47.514Z,96941.09
2018-05-08T19:16:16.527Z,96945.28
2018-05-08T19:18:50.422Z,96943.33
2018-05-08T19:21:20.193Z,96944.59
2018-05-08T19:23:54.103Z,96946.30
2018-05-08T19:26:22.356Z,96948.44
2018-05-08T19:28:56.192Z,96949.61
2018-05-08T19:31:25.209Z,96952.70
2018-05-08T19:33:54.219Z,96952.30
2018-05-08T19:36:29.042Z,96957.81
2018-05-08T19:38:58.816Z,96952.77
2018-05-08T19:41:27.054Z,96959.86
2018-05-08T19:43:55.303Z,96958.42
2018-05-08T19:46:23.575Z,96962.63
2018-05-08T19:48:51.841Z,96963.03
2018-05-08T19:51:20.851Z,96960.89
2018-05-08T19:53:49.092Z,96960.50
2018-05-08T19:56:17.371Z,96962.91
2018-05-08T19:58:45.611Z,96968.48
2018-05-08T20:01:14.627Z,96964.09
2018-05-08T20:03:42.879Z,96971.98
2018-05-08T20:06:11.123Z,96974.50
2018-05-08T20:08:40.212Z,96979.81
2018-05-08T20:11:08.387Z,96976.39
2018-05-08T20:13:37.464Z,96966.14
2018-05-08T20:16:05.711Z,96970.23
2018-05-08T20:18:33.947Z,96972.00
2018-05-08T20:21:02.278Z,96977.70
2018-05-08T20:23:30.467Z,96974.78
2018-05-08T20:25:58.728Z,96979.73
2018-05-08T20:28:26.955Z,96979.22
2018-05-08T20:30:55.212Z,96973.14
2018-05-08T20:33:24.205Z,96971.15
2018-05-08T20:35:52.463Z,96969.23
2018-05-08T20:38:20.716Z,96967.06
2018-05-08T20:40:48.993Z,96972.85
2018-05-08T20:43:17.999Z,96973.05
2018-05-08T20:45:47.031Z,96968.53
2018-05-08T20:48:15.258Z,96967.06
2018-05-08T20:50:43.518Z,96962.63
2018-05-08T20:53:11.746Z,96962.00
2018-05-08T20:55:40.806Z,96960.42
2018-05-08T20:58:09.894Z,96962.45
2018-05-08T21:00:38.144Z,96970.95
2018-05-08T21:03:06.446Z,96960.93
2018-05-08T21:05:35.488Z,96960.93
2018-05-08T21:08:03.734Z,96966.63
2018-05-08T21:10:32.015Z,96961.71
2018-05-08T21:13:00.244Z,96961.08
2018-05-08T21:15:28.511Z,96957.70
2018-05-08T21:17:57.529Z,96963.56
2018-05-08T21:20:26.532Z,96963.26
2018-05-08T21:22:55.541Z,96965.21
2018-05-08T21:25:24.564Z,96962.28
2018-05-08T21:27:58.440Z,96962.45
2018-05-08T21:30:33.930Z,96964.14
2018-05-08T21:33:02.075Z,96959.05
2018-05-08T21:35:30.497Z,96962.01
2018-05-08T21:37:59.495Z,96961.23
2018-05-08T21:40:27.806Z,96959.73
2018-05-08T21:42:56.815Z,96960.87
2018-05-08T21:45:25.811Z,96963.52
2018-05-08T21:47:54.928Z,96967.37
2018-05-08T21:50:24.021Z,96965.05
2018-05-08T21:52:53.039Z,96971.62
2018-05-08T21:55:22.152Z,96963.05
2018-05-08T21:57:50.431Z,96960.33
2018-05-08T22:00:19.447Z,96961.28
2018-05-08T22:02:48.547Z,96959.10
2018-05-08T22:05:17.675Z,96959.56
2018-05-08T22:07:45.918Z,96969.69
2018-05-08T22:10:14.146Z,96963.80
2018-05-08T22:12:42.470Z,96960.57
2018-05-08T22:15:11.418Z,96958.63
2018-05-08T22:17:40.435Z,96964.09
2018-05-08T22:20:09.606Z,96960.97
2018-05-08T22:22:37.820Z,96963.28
2018-05-08T22:25:06.055Z,96960.87
2018-05-08T22:27:34.312Z,96968.83
2018-05-08T22:30:03.322Z,96956.98
2018-05-08T22:32:32.418Z,96962.34
2018-05-08T22:35:01.451Z,96960.91
2018-05-08T22:37:29.712Z,96960.58
2018-05-08T22:39:58.710Z,96969.22
2018-05-08T22:42:26.986Z,96976.39
2018-05-08T22:44:55.303Z,97004.99
2018-05-08T22:47:24.318Z,96989.52
2018-05-08T22:49:53.319Z,96984.07
2018-05-08T22:52:22.336Z,96982.13
2018-05-08T22:54:50.642Z,96978.25
2018-05-08T22:57:18.886Z,96979.05
2018-05-08T22:59:47.131Z,96969.34
2018-05-08T23:02:15.380Z,96968.81
2018-05-08T23:04:44.395Z,96966.83
2018-05-08T23:07:13.413Z,96966.08
2018-05-08T23:09:41.652Z,96963.80
2018-05-08T23:12:09.915Z,96967.00
2018-05-08T23:14:38.155Z,96962.12
2018-05-08T23:17:07.155Z,96964.33
2018-05-08T23:19:36.171Z,96957.50
2018-05-08T23:22:05.174Z,96962.20
2018-05-08T23:24:34.195Z,96967.97
2018-05-08T23:27:02.431Z,96962.47
2018-05-08T23:29:30.686Z,96957.63
2018-05-08T23:31:58.919Z,96963.46
2018-05-08T23:34:27.170Z,96963.06
2018-05-08T23:36:55.407Z,96959.09
2018-05-08T23:39:23.660Z,96957.84
2018-05-08T23:41:51.910Z,96952.73
2018-05-08T23:44:20.934Z,96948.17
2018-05-08T23:46:49.182Z,96953.97
2018-05-08T23:49:17.434Z,96951.28
2018-05-08T23:51:45.666Z,96956.34
2018-05-08T23:54:14.760Z,96959.72
2018-05-08T23:56:43.679Z,96953.45
2018-05-08T23:59:12.690Z,96952.83
